Time;durP1;ratioP1;P1;durP2;ratioP2;P2;SDS_P1;SDS_P2;PMS_P1;PMS_P2;Temp;Humidity;BMP_temperature;BMP_pressure;BME280_temperature;BME280_humidity;BME280_pressure;Samples;Min_cycle;Max_cycle;Signal;HPM_P1;HPM_P2
2021/11/30 00:01:24;;;;;;;26.50;25.00;;;3.80;99.90;;;;;;5031665;28;20461;-75
2021/11/30 00:03:50;;;;;;;25.83;24.53;;;3.80;99.90;;;;;;5030527;28;20487;-76
2021/11/30 00:06:17;;;;;;;26.17;24.67;;;3.80;99.90;;;;;;5031204;28;20518;-76
2021/11/30 00:08:44;;;;;;;25.37;24.00;;;3.80;99.90;;;;;;5031256;28;20935;-74
2021/11/30 00:11:11;;;;;;;26.70;25.00;;;3.80;99.90;;;;;;5031380;28;20464;-76
2021/11/30 00:13:41;;;;;;;25.33;23.83;;;3.80;99.90;;;;;;5031275;28;20470;-75
2021/11/30 00:16:10;;;;;;;25.50;24.00;;;3.90;99.90;;;;;;5031226;28;20475;-74
2021/11/30 00:18:37;;;;;;;25.20;23.70;;;3.80;99.90;;;;;;5031023;28;20953;-75
2021/11/30 00:21:08;;;;;;;27.13;25.13;;;3.80;99.90;;;;;;5031208;28;21169;-80
2021/11/30 00:23:35;;;;;;;25.40;24.10;;;3.70;99.90;;;;;;5031315;28;20481;-77
2021/11/30 00:26:03;;;;;;;25.93;24.37;;;3.70;99.90;;;;;;5031161;28;20463;-77
2021/11/30 00:28:29;;;;;;;25.97;24.57;;;3.70;99.90;;;;;;5031266;28;20460;-76
2021/11/30 00:30:58;;;;;;;26.97;25.27;;;3.70;99.90;;;;;;5030878;28;20449;-76
2021/11/30 00:33:25;;;;;;;27.17;25.73;;;3.70;99.90;;;;;;5031077;28;20463;-75
2021/11/30 00:35:52;;;;;;;25.23;24.03;;;3.70;99.90;;;;;;5030855;28;20470;-76
2021/11/30 00:38:19;;;;;;;25.40;24.00;;;3.70;99.90;;;;;;5030938;28;20457;-75
2021/11/30 00:40:47;;;;;;;24.47;22.90;;;3.70;99.90;;;;;;5031076;28;20484;-75
2021/11/30 00:43:19;;;;;;;26.10;24.40;;;3.60;99.90;;;;;;5031100;28;20488;-75
2021/11/30 00:45:52;;;;;;;24.87;23.57;;;3.70;99.90;;;;;;5030739;28;20549;-75
2021/11/30 00:48:22;;;;;;;24.17;22.87;;;3.70;99.90;;;;;;5030805;28;20457;-76
2021/11/30 00:50:51;;;;;;;28.00;26.30;;;3.60;99.90;;;;;;5031031;28;20452;-77
2021/11/30 00:53:18;;;;;;;25.47;24.17;;;3.60;99.90;;;;;;5030446;28;20946;-79
2021/11/30 00:55:44;;;;;;;26.20;24.47;;;3.60;99.90;;;;;;5030789;28;20948;-78
2021/11/30 00:58:11;;;;;;;25.40;24.00;;;3.50;99.90;;;;;;5030799;28;20978;-79
2021/11/30 01:00:38;;;;;;;25.00;23.63;;;3.50;99.90;;;;;;5030739;28;20456;-78
2021/11/30 01:03:06;;;;;;;24.07;22.87;;;3.50;99.90;;;;;;5031014;28;20452;-78
2021/11/30 01:05:36;;;;;;;25.03;23.57;;;3.50;99.90;;;;;;5030355;28;20455;-78
2021/11/30 01:08:03;;;;;;;25.07;23.77;;;3.40;99.90;;;;;;5030619;28;20869;-77
2021/11/30 01:10:29;;;;;;;24.60;23.30;;;3.50;99.90;;;;;;5030633;28;20460;-77
2021/11/30 01:12:56;;;;;;;25.77;24.37;;;3.50;99.90;;;;;;5030621;28;20948;-78
2021/11/30 01:15:23;;;;;;;24.13;22.90;;;3.50;99.90;;;;;;5032660;28;20456;-76
2021/11/30 01:17:51;;;;;;;24.27;23.07;;;3.50;99.90;;;;;;5034636;28;20456;-76
2021/11/30 01:20:19;;;;;;;25.07;23.70;;;3.50;99.90;;;;;;5034413;28;20463;-78
2021/11/30 01:22:48;;;;;;;22.87;21.87;;;3.50;99.90;;;;;;5034668;28;20807;-77
2021/11/30 01:25:15;;;;;;;23.20;22.00;;;3.60;99.90;;;;;;5034424;28;20491;-78
2021/11/30 01:27:42;;;;;;;23.07;21.97;;;3.60;99.90;;;;;;5034407;28;20449;-77
2021/11/30 01:30:13;;;;;;;22.33;21.27;;;3.60;99.90;;;;;;5034693;28;20452;-78
2021/11/30 01:32:40;;;;;;;22.93;21.70;;;3.60;99.90;;;;;;5034380;28;20453;-77
2021/11/30 01:35:07;;;;;;;22.53;21.03;;;3.60;99.90;;;;;;5034282;28;20527;-77
2021/11/30 01:37:34;;;;;;;21.80;20.60;;;3.60;99.90;;;;;;5034243;28;20441;-77
2021/11/30 01:40:04;;;;;;;21.40;20.43;;;3.60;99.90;;;;;;5033931;28;20521;-76
2021/11/30 01:42:32;;;;;;;22.87;21.23;;;3.70;99.90;;;;;;5034001;28;20516;-76
2021/11/30 01:45:05;;;;;;;22.67;21.47;;;3.60;99.90;;;;;;5034048;28;20488;-76
2021/11/30 01:47:54;;;;;;;22.20;21.10;;;3.70;99.90;;;;;;5034213;28;20443;-76
2021/11/30 01:50:20;;;;;;;21.17;20.10;;;3.70;99.90;;;;;;5034267;28;20538;-75
2021/11/30 01:52:49;;;;;;;20.40;19.20;;;3.70;99.90;;;;;;5033801;28;20942;-75
2021/11/30 01:55:18;;;;;;;20.73;19.57;;;3.70;99.90;;;;;;5033915;28;20975;-75
2021/11/30 01:57:46;;;;;;;21.07;20.07;;;3.70;99.90;;;;;;5033680;28;20452;-75
2021/11/30 02:00:14;;;;;;;21.40;20.30;;;3.70;99.90;;;;;;5033980;28;20503;-75
2021/11/30 02:02:41;;;;;;;21.00;19.77;;;3.70;99.90;;;;;;5033706;28;20974;-75
2021/11/30 02:05:08;;;;;;;20.77;19.57;;;3.70;99.90;;;;;;5033453;28;20573;-76
2021/11/30 02:07:36;;;;;;;19.37;18.57;;;3.80;99.90;;;;;;5033569;28;21013;-74
2021/11/30 02:10:06;;;;;;;19.40;18.23;;;3.80;99.90;;;;;;5033766;28;20503;-75
2021/11/30 02:12:34;;;;;;;18.40;17.60;;;3.80;99.90;;;;;;5033487;28;20456;-75
2021/11/30 02:15:02;;;;;;;19.00;17.90;;;3.80;99.90;;;;;;5033400;28;20488;-74
2021/11/30 02:17:29;;;;;;;17.90;17.00;;;3.80;99.90;;;;;;5033689;28;20545;-74
2021/11/30 02:19:59;;;;;;;17.77;16.80;;;3.80;99.90;;;;;;5033240;28;20449;-74
2021/11/30 02:22:26;;;;;;;16.80;16.10;;;3.80;99.90;;;;;;5033194;28;20466;-74
2021/11/30 02:24:53;;;;;;;17.33;16.33;;;3.80;99.90;;;;;;5033175;28;20491;-74
2021/11/30 02:27:21;;;;;;;16.70;15.90;;;3.70;99.90;;;;;;5032573;28;20456;-74
2021/11/30 02:29:47;;;;;;;16.60;15.90;;;3.80;99.90;;;;;;5033076;28;20453;-74
2021/11/30 02:32:15;;;;;;;16.40;15.60;;;3.80;99.90;;;;;;5033499;28;20502;-74
2021/11/30 02:34:42;;;;;;;14.63;14.00;;;3.80;99.90;;;;;;5032780;28;20490;-73
2021/11/30 02:37:13;;;;;;;14.53;13.87;;;3.70;99.90;;;;;;5033386;28;20782;-74
2021/11/30 02:39:42;;;;;;;16.13;14.50;;;3.80;99.90;;;;;;5032958;28;20456;-73
2021/11/30 02:42:10;;;;;;;14.60;13.70;;;3.80;99.90;;;;;;5033274;28;20536;-74
2021/11/30 02:44:37;;;;;;;15.47;14.27;;;3.80;99.90;;;;;;5032630;28;20493;-74
2021/11/30 02:47:06;;;;;;;14.50;13.70;;;3.90;99.90;;;;;;5033065;28;20471;-74
2021/11/30 02:49:37;;;;;;;13.67;13.17;;;3.90;99.90;;;;;;5032767;28;20444;-73
2021/11/30 02:52:08;;;;;;;14.10;13.23;;;3.90;99.90;;;;;;5033091;28;20455;-74
2021/11/30 02:54:41;;;;;;;14.50;13.70;;;3.90;99.90;;;;;;5033082;28;20456;-74
2021/11/30 02:57:08;;;;;;;13.70;13.00;;;3.80;99.90;;;;;;5032607;28;20462;-74
2021/11/30 02:59:39;;;;;;;13.93;13.17;;;3.80;99.90;;;;;;5032790;28;20466;-74
2021/11/30 03:02:11;;;;;;;14.10;13.40;;;3.70;99.90;;;;;;5032810;28;20452;-73
2021/11/30 03:04:38;;;;;;;13.33;12.73;;;3.70;99.90;;;;;;5032317;28;20492;-73
2021/11/30 03:07:05;;;;;;;13.37;12.77;;;3.60;99.90;;;;;;5032912;28;20452;-78
2021/11/30 03:09:31;;;;;;;14.40;13.40;;;3.60;99.90;;;;;;5032517;28;20444;-75
2021/11/30 03:11:59;;;;;;;12.90;12.40;;;3.50;99.90;;;;;;5032576;28;20450;-73
2021/11/30 03:14:28;;;;;;;13.30;12.50;;;3.50;99.90;;;;;;5032206;28;20476;-75
2021/11/30 03:16:55;;;;;;;12.47;11.97;;;3.40;99.90;;;;;;5032543;28;20457;-74
2021/11/30 03:19:23;;;;;;;13.53;12.40;;;3.40;99.90;;;;;;5032210;28;20460;-75
2021/11/30 03:21:49;;;;;;;13.87;13.00;;;3.40;99.90;;;;;;5032560;28;20840;-76
2021/11/30 03:24:16;;;;;;;13.77;13.07;;;3.30;99.90;;;;;;5032184;28;20490;-76
2021/11/30 03:26:43;;;;;;;12.83;12.13;;;3.30;99.90;;;;;;5032415;28;20464;-76
2021/11/30 03:29:11;;;;;;;12.53;11.93;;;3.30;99.90;;;;;;5031999;28;20844;-76
2021/11/30 03:31:48;;;;;;;14.13;13.43;;;3.20;99.90;;;;;;5032260;28;20517;-76
2021/11/30 03:34:17;;;;;;;13.03;12.40;;;3.30;99.90;;;;;;5032049;28;20445;-76
2021/11/30 03:36:47;;;;;;;11.73;11.23;;;3.30;99.90;;;;;;5031809;28;20463;-76
2021/11/30 03:39:16;;;;;;;12.33;11.67;;;3.40;99.90;;;;;;5031681;28;20453;-76
2021/11/30 03:41:43;;;;;;;13.33;12.50;;;3.40;99.90;;;;;;5032068;28;20837;-75
2021/11/30 03:44:12;;;;;;;12.30;11.50;;;3.40;99.90;;;;;;5031796;28;20489;-76
2021/11/30 03:46:39;;;;;;;13.17;11.77;;;3.40;99.90;;;;;;5031755;28;20457;-75
2021/11/30 03:49:08;;;;;;;12.93;12.40;;;3.50;99.90;;;;;;5031821;28;20457;-76
2021/11/30 03:51:36;;;;;;;12.40;11.90;;;3.50;99.90;;;;;;5031608;28;20969;-74
2021/11/30 03:54:03;;;;;;;12.23;11.73;;;3.60;99.90;;;;;;5031700;28;20453;-73
2021/11/30 03:56:30;;;;;;;11.70;11.30;;;3.60;99.90;;;;;;5031659;28;20461;-74
2021/11/30 03:58:57;;;;;;;11.50;11.10;;;3.70;99.90;;;;;;5031718;28;20464;-75
2021/11/30 04:01:25;;;;;;;11.70;11.20;;;3.70;99.90;;;;;;5031399;28;20459;-74
2021/11/30 04:03:51;;;;;;;11.93;11.20;;;3.70;99.90;;;;;;5031309;28;20465;-74
2021/11/30 04:06:18;;;;;;;10.80;10.30;;;3.80;99.90;;;;;;5031492;28;20460;-74
2021/11/30 04:08:45;;;;;;;11.43;11.03;;;3.80;99.90;;;;;;5031452;28;20456;-75
2021/11/30 04:11:12;;;;;;;11.53;10.90;;;3.80;99.90;;;;;;5031369;28;20630;-75
2021/11/30 04:13:38;;;;;;;11.50;11.10;;;3.70;99.90;;;;;;5031171;28;20856;-74
2021/11/30 04:16:06;;;;;;;12.43;11.73;;;3.70;99.90;;;;;;5031240;28;20456;-75
2021/11/30 04:18:34;;;;;;;11.63;11.13;;;3.70;99.90;;;;;;5031173;28;20448;-74
2021/11/30 04:21:01;;;;;;;10.90;10.50;;;3.70;99.90;;;;;;5031235;28;20964;-73
2021/11/30 04:23:28;;;;;;;11.73;11.10;;;3.70;99.90;;;;;;5031269;28;20458;-73
2021/11/30 04:25:54;;;;;;;11.50;11.00;;;3.70;99.90;;;;;;5030784;28;20500;-72
2021/11/30 04:28:21;;;;;;;11.00;10.50;;;3.70;99.90;;;;;;5031144;28;20452;-73
2021/11/30 04:30:48;;;;;;;11.43;10.80;;;3.70;99.90;;;;;;5031115;28;20559;-72
2021/11/30 04:33:15;;;;;;;11.30;10.80;;;3.60;99.90;;;;;;5030949;28;20577;-73
2021/11/30 04:35:43;;;;;;;11.27;10.77;;;3.60;99.90;;;;;;5030629;28;20485;-73
2021/11/30 04:38:10;;;;;;;11.53;11.03;;;3.60;99.90;;;;;;5030878;28;20506;-72
2021/11/30 04:40:36;;;;;;;11.80;11.20;;;3.50;99.90;;;;;;5030808;28;20449;-75
2021/11/30 04:43:04;;;;;;;11.20;10.80;;;3.50;99.90;;;;;;5030869;28;20449;-72
2021/11/30 04:45:43;;;;;;;11.33;10.93;;;3.40;99.90;;;;;;5030419;28;21032;-76
2021/11/30 04:48:09;;;;;;;11.73;11.23;;;3.40;99.90;;;;;;5030801;28;20472;-72
2021/11/30 04:50:42;;;;;;;11.90;11.40;;;3.50;99.90;;;;;;5030217;28;20449;-73
2021/11/30 04:53:10;;;;;;;10.90;10.50;;;3.40;99.90;;;;;;5030536;28;20446;-72
2021/11/30 04:55:37;;;;;;;10.43;10.03;;;3.30;99.90;;;;;;5030575;28;20551;-74
2021/11/30 04:58:05;;;;;;;12.53;11.90;;;3.30;99.90;;;;;;5030423;28;20448;-75
2021/11/30 05:00:35;;;;;;;12.43;11.73;;;3.30;99.90;;;;;;5030375;28;20446;-75
2021/11/30 05:03:02;;;;;;;12.37;11.63;;;3.30;99.90;;;;;;5030441;28;20534;-75
2021/11/30 05:05:29;;;;;;;11.53;10.90;;;3.40;99.90;;;;;;5030533;28;20513;-75
2021/11/30 05:07:55;;;;;;;12.53;11.70;;;3.30;99.90;;;;;;5030547;28;20455;-75
2021/11/30 05:10:23;;;;;;;11.43;10.93;;;3.40;99.90;;;;;;5030665;28;20455;-76
2021/11/30 05:12:50;;;;;;;11.27;10.83;;;3.30;99.90;;;;;;5030738;28;20828;-75
2021/11/30 05:15:17;;;;;;;13.13;12.43;;;3.40;99.90;;;;;;5030480;28;20456;-75
2021/11/30 05:17:44;;;;;;;14.60;13.53;;;3.40;99.90;;;;;;5030451;28;20448;-76
2021/11/30 05:20:11;;;;;;;11.43;10.93;;;3.50;99.90;;;;;;5030495;28;20457;-75
2021/11/30 05:22:38;;;;;;;12.37;11.30;;;3.50;99.90;;;;;;5030172;28;20451;-75
2021/11/30 05:25:07;;;;;;;13.50;12.60;;;3.40;99.90;;;;;;5030309;28;20486;-76
2021/11/30 05:27:40;;;;;;;12.63;11.87;;;3.40;99.90;;;;;;5030466;28;20452;-76
2021/11/30 05:30:08;;;;;;;12.83;12.13;;;3.40;99.90;;;;;;5030294;28;20617;-75
2021/11/30 05:32:35;;;;;;;12.03;11.40;;;3.40;99.90;;;;;;5030254;28;20448;-75
2021/11/30 05:35:01;;;;;;;13.20;12.40;;;3.40;99.90;;;;;;5030278;28;20479;-75
2021/11/30 05:37:28;;;;;;;12.77;11.87;;;3.40;99.90;;;;;;5030504;28;20513;-75
2021/11/30 05:39:55;;;;;;;13.33;12.37;;;3.40;99.90;;;;;;5030236;28;20452;-74
2021/11/30 05:42:21;;;;;;;11.50;10.73;;;3.30;99.90;;;;;;5030310;28;20991;-75
2021/11/30 05:44:51;;;;;;;12.83;12.03;;;3.20;99.90;;;;;;5029899;28;20502;-75
2021/11/30 05:47:18;;;;;;;13.33;12.63;;;3.20;99.90;;;;;;5030341;28;20452;-75
2021/11/30 05:49:45;;;;;;;13.30;12.43;;;3.10;99.90;;;;;;5030094;28;20948;-76
2021/11/30 05:52:12;;;;;;;13.57;12.77;;;3.10;99.90;;;;;;5030216;28;20517;-75
2021/11/30 05:54:39;;;;;;;13.13;12.40;;;3.20;99.90;;;;;;5030231;28;20453;-74
2021/11/30 05:57:07;;;;;;;14.27;13.33;;;3.10;99.90;;;;;;5030198;28;20564;-73
2021/11/30 05:59:38;;;;;;;14.43;13.43;;;3.10;99.90;;;;;;5030159;28;20461;-73
2021/11/30 06:02:08;;;;;;;11.67;11.17;;;3.10;99.90;;;;;;5031521;28;20886;-74
2021/11/30 06:04:35;;;;;;;13.70;12.77;;;3.10;99.90;;;;;;5033464;28;20461;-74
2021/11/30 06:07:02;;;;;;;13.83;12.93;;;3.10;99.90;;;;;;5033559;28;20450;-75
2021/11/30 06:09:29;;;;;;;14.33;13.40;;;3.10;99.90;;;;;;5033766;28;20874;-73
2021/11/30 06:11:57;;;;;;;13.67;12.83;;;3.00;99.90;;;;;;5033550;28;20449;-73
2021/11/30 06:14:23;;;;;;;13.07;12.47;;;3.10;99.90;;;;;;5033640;28;20712;-73
2021/11/30 06:16:50;;;;;;;14.37;13.60;;;3.00;99.90;;;;;;5033635;28;20445;-74
2021/11/30 06:19:20;;;;;;;13.50;12.77;;;3.00;99.90;;;;;;5033273;28;20475;-74
2021/11/30 06:21:47;;;;;;;24.23;13.67;;;3.10;99.90;;;;;;5033766;28;20457;-74
2021/11/30 06:24:14;;;;;;;13.50;12.80;;;3.00;99.90;;;;;;5033419;28;20491;-75
2021/11/30 06:26:41;;;;;;;15.70;14.90;;;3.10;99.90;;;;;;5033311;28;21231;-75
2021/11/30 06:29:08;;;;;;;18.13;16.97;;;2.90;99.90;;;;;;5033516;28;20469;-76
2021/11/30 06:31:34;;;;;;;18.60;17.47;;;2.80;99.90;;;;;;5033133;28;20535;-75
2021/11/30 06:34:01;;;;;;;19.27;18.47;;;2.80;99.90;;;;;;5033395;28;20778;-75
2021/11/30 06:36:29;;;;;;;22.53;21.13;;;2.80;99.90;;;;;;5033316;28;20802;-78
2021/11/30 06:38:57;;;;;;;24.47;23.37;;;2.60;99.90;;;;;;5033317;28;20458;-80
2021/11/30 06:41:24;;;;;;;26.73;25.20;;;2.60;99.90;;;;;;5033502;28;20471;-79
2021/11/30 06:43:51;;;;;;;23.53;22.50;;;2.60;99.90;;;;;;5033132;28;20459;-79
2021/11/30 06:46:19;;;;;;;27.27;25.97;;;2.50;99.90;;;;;;5032716;28;20499;-77
2021/11/30 06:48:46;;;;;;;29.00;27.50;;;2.50;99.90;;;;;;5032878;28;20784;-76
2021/11/30 06:51:14;;;;;;;29.57;27.80;;;2.50;99.90;;;;;;5032749;28;20461;-76
2021/11/30 06:53:42;;;;;;;31.30;29.70;;;2.40;99.90;;;;;;5032606;28;20455;-79
2021/11/30 06:56:10;;;;;;;30.53;28.93;;;2.40;99.90;;;;;;5032980;28;20447;-79
2021/11/30 06:58:37;;;;;;;32.50;30.60;;;2.40;99.90;;;;;;5032818;28;20454;-80
2021/11/30 07:01:04;;;;;;;31.27;29.47;;;2.40;99.90;;;;;;5032952;28;20456;-78
2021/11/30 07:03:31;;;;;;;31.10;29.40;;;2.30;99.90;;;;;;5032363;28;20454;-78
2021/11/30 07:06:02;;;;;;;31.87;29.90;;;2.30;99.90;;;;;;5032716;28;20576;-79
2021/11/30 07:11:19;;;;;;;30.13;28.43;;;2.40;99.90;;;;;;5032242;28;20933;-78
2021/11/30 07:13:46;;;;;;;30.00;28.70;;;2.40;99.90;;;;;;5032104;28;20549;-79
2021/11/30 07:16:12;;;;;;;28.87;27.57;;;2.40;99.90;;;;;;5032291;28;20939;-78
2021/11/30 07:18:40;;;;;;;30.03;28.60;;;2.40;99.90;;;;;;5032495;28;20452;-78
2021/11/30 07:21:07;;;;;;;29.93;28.43;;;2.40;99.90;;;;;;5032431;28;20946;-79
2021/11/30 07:23:34;;;;;;;29.23;27.93;;;2.50;99.90;;;;;;5032439;28;20453;-80
2021/11/30 07:26:02;;;;;;;28.73;27.43;;;2.50;99.90;;;;;;5032042;28;20999;-80
2021/11/30 07:28:31;;;;;;;30.10;28.60;;;2.60;99.90;;;;;;5032281;28;20459;-79
2021/11/30 07:31:00;;;;;;;27.13;25.97;;;2.60;99.90;;;;;;5031809;28;20451;-77
2021/11/30 07:33:27;;;;;;;27.63;26.43;;;2.70;99.90;;;;;;5031724;28;20993;-81
2021/11/30 07:35:54;;;;;;;29.57;28.17;;;2.70;99.90;;;;;;5031588;28;21501;-77
2021/11/30 07:38:21;;;;;;;27.60;26.50;;;2.70;99.90;;;;;;5031325;28;20449;-79
2021/11/30 07:40:48;;;;;;;30.23;28.83;;;2.60;99.90;;;;;;5031822;28;20877;-77
2021/11/30 07:43:38;;;;;;;27.60;26.50;;;2.70;99.90;;;;;;5031922;28;20450;-76
2021/11/30 07:46:05;;;;;;;29.20;27.90;;;2.70;99.90;;;;;;5028694;28;20511;-76
2021/11/30 07:48:32;;;;;;;28.37;27.17;;;2.70;99.90;;;;;;5031490;28;20454;-76
2021/11/30 07:51:01;;;;;;;30.10;28.50;;;2.70;99.90;;;;;;5031288;28;20455;-76
2021/11/30 07:53:28;;;;;;;28.60;27.23;;;2.80;99.90;;;;;;5031179;28;20530;-76
2021/11/30 07:55:55;;;;;;;28.43;27.23;;;2.80;99.90;;;;;;5031447;28;20450;-76
2021/11/30 07:58:22;;;;;;;30.00;28.60;;;2.80;99.90;;;;;;5031483;28;20512;-74
2021/11/30 08:00:51;;;;;;;28.50;27.20;;;2.90;99.90;;;;;;5031333;28;20456;-74
2021/11/30 08:03:20;;;;;;;28.70;27.50;;;3.00;99.90;;;;;;5031300;28;21018;-75
2021/11/30 08:05:47;;;;;;;29.57;28.33;;;3.00;99.90;;;;;;5031237;28;20488;-74
2021/11/30 08:08:13;;;;;;;29.10;27.80;;;3.20;99.90;;;;;;5031115;28;20456;-72
2021/11/30 08:10:40;;;;;;;29.60;28.40;;;3.20;99.90;;;;;;5031103;28;20462;-75
2021/11/30 08:13:07;;;;;;;29.67;28.37;;;3.20;99.90;;;;;;5031049;28;20454;-76
2021/11/30 08:15:35;;;;;;;29.37;28.17;;;3.30;99.90;;;;;;5031172;28;20449;-77
2021/11/30 08:18:03;;;;;;;28.40;27.20;;;3.30;99.90;;;;;;5031074;28;20466;-76
2021/11/30 08:20:30;;;;;;;30.10;28.70;;;3.30;99.90;;;;;;5031110;28;20456;-77
2021/11/30 08:22:58;;;;;;;29.63;28.23;;;3.30;99.90;;;;;;5029081;28;21006;-78
2021/11/30 08:25:25;;;;;;;28.13;27.00;;;3.20;99.90;;;;;;5030411;28;20496;-77
2021/11/30 08:27:52;;;;;;;28.77;27.60;;;3.30;99.90;;;;;;5031181;28;20914;-77
2021/11/30 08:30:19;;;;;;;28.10;26.80;;;3.30;99.90;;;;;;5031116;28;20537;-78
2021/11/30 08:32:46;;;;;;;29.23;27.93;;;3.30;99.90;;;;;;5030875;28;20509;-77
2021/11/30 08:35:14;;;;;;;29.37;27.80;;;3.30;99.90;;;;;;5030917;28;20475;-78
2021/11/30 08:37:40;;;;;;;30.70;28.90;;;3.20;99.90;;;;;;5030895;28;20446;-76
2021/11/30 08:40:11;;;;;;;28.00;26.80;;;3.20;99.90;;;;;;5030880;28;21051;-76
2021/11/30 08:42:38;;;;;;;27.90;26.70;;;3.10;99.90;;;;;;5031004;28;20460;-76
2021/11/30 08:45:07;;;;;;;31.13;29.13;;;3.10;99.90;;;;;;5030571;28;20482;-77
2021/11/30 14:05:27;;;;;;;25.97;25.07;;;4.60;99.90;;;;;;5988051;23;20812;-77
2021/11/30 14:07:55;;;;;;;25.83;24.93;;;4.70;99.90;;;;;;4952246;28;20562;-77
2021/11/30 14:10:25;;;;;;;24.23;23.33;;;4.70;99.90;;;;;;4955096;29;20537;-77
2021/11/30 14:12:53;;;;;;;23.20;22.40;;;4.70;99.90;;;;;;4955076;29;20518;-77
2021/11/30 14:15:22;;;;;;;21.00;20.20;;;4.70;99.90;;;;;;4955195;28;20456;-77
2021/11/30 14:17:48;;;;;;;21.50;20.70;;;4.70;99.90;;;;;;4955166;29;20938;-77
2021/11/30 14:20:25;;;;;;;21.13;20.37;;;4.70;99.90;;;;;;4954794;29;20947;-77
2021/11/30 14:22:53;;;;;;;19.73;19.03;;;4.80;99.90;;;;;;4953751;28;20460;-76
2021/11/30 14:25:21;;;;;;;18.73;17.90;;;4.80;99.90;;;;;;4955080;29;20595;-76
2021/11/30 14:27:50;;;;;;;19.17;18.10;;;4.80;99.90;;;;;;4954339;28;21022;-77
2021/11/30 14:30:19;;;;;;;17.47;16.87;;;4.80;99.90;;;;;;4954395;29;20500;-74
2021/11/30 14:32:59;;;;;;;16.77;16.20;;;4.80;99.90;;;;;;4954089;29;20819;-75
2021/11/30 14:35:28;;;;;;;16.00;15.50;;;4.80;99.90;;;;;;4954265;29;20526;-75
2021/11/30 14:37:54;;;;;;;14.47;13.97;;;4.90;99.90;;;;;;4954673;29;20460;-75
2021/11/30 14:40:23;;;;;;;14.40;13.90;;;4.90;99.90;;;;;;4954714;28;20452;-75
2021/11/30 14:42:51;;;;;;;14.20;13.70;;;5.00;99.90;;;;;;4951458;28;20453;-75
2021/11/30 14:45:29;;;;;;;14.70;14.00;;;5.00;99.90;;;;;;4953648;29;20830;-74
2021/11/30 14:48:11;;;;;;;12.70;12.30;;;5.10;99.90;;;;;;4953808;29;20496;-74
2021/11/30 14:50:42;;;;;;;12.20;11.60;;;5.10;99.90;;;;;;4953989;29;20943;-75
2021/11/30 14:53:15;;;;;;;10.90;10.60;;;5.20;99.90;;;;;;4954027;29;20452;-74
2021/11/30 14:55:52;;;;;;;11.20;10.70;;;5.20;99.90;;;;;;4953933;29;20890;-74
2021/11/30 14:58:22;;;;;;;11.10;10.70;;;5.20;99.90;;;;;;4954411;29;20460;-74
2021/11/30 15:00:52;;;;;;;10.27;9.97;;;5.20;99.90;;;;;;4954516;29;20513;-74
2021/11/30 15:03:20;;;;;;;11.40;10.80;;;5.40;99.90;;;;;;4954729;28;20467;-74
2021/11/30 15:05:51;;;;;;;9.97;9.67;;;5.20;99.90;;;;;;4938648;29;20508;-74
2021/11/30 15:08:36;;;;;;;10.20;9.80;;;5.30;99.90;;;;;;4935466;29;20446;-74
2021/11/30 15:11:07;;;;;;;10.20;9.90;;;5.30;99.90;;;;;;4935715;29;20529;-74
2021/11/30 15:13:36;;;;;;;10.60;10.20;;;5.30;99.90;;;;;;4935565;29;20452;-74
2021/11/30 15:16:04;;;;;;;10.10;9.60;;;5.30;99.90;;;;;;4934990;29;20452;-75
2021/11/30 15:18:30;;;;;;;9.90;9.60;;;5.40;99.90;;;;;;4934910;29;20487;-75
2021/11/30 15:20:58;;;;;;;10.40;10.10;;;5.30;99.90;;;;;;4934823;29;20457;-75
2021/11/30 15:23:25;;;;;;;11.20;10.80;;;5.30;99.90;;;;;;4934745;29;20462;-75
2021/11/30 15:25:59;;;;;;;12.20;11.43;;;5.30;99.90;;;;;;4934448;29;20475;-77
2021/11/30 15:28:26;;;;;;;15.17;14.67;;;5.20;99.90;;;;;;4934746;29;20488;-75
2021/11/30 15:30:54;;;;;;;19.00;18.40;;;5.20;99.90;;;;;;4934512;29;20552;-75
2021/11/30 15:33:20;;;;;;;18.87;18.27;;;5.10;99.90;;;;;;4934531;29;20444;-75
2021/11/30 15:35:47;;;;;;;20.73;19.87;;;5.00;99.90;;;;;;4934498;29;20461;-75
2021/11/30 15:38:16;;;;;;;21.40;20.50;;;5.00;99.90;;;;;;4934583;29;20442;-76
2021/11/30 15:40:42;;;;;;;21.33;20.63;;;5.10;99.90;;;;;;4934480;29;20461;-76
2021/11/30 15:43:09;;;;;;;22.10;21.30;;;5.10;99.90;;;;;;4934526;29;20458;-75
2021/11/30 15:45:36;;;;;;;22.20;21.23;;;5.10;99.90;;;;;;4934274;29;21103;-75
2021/11/30 15:48:03;;;;;;;21.90;21.20;;;5.10;99.90;;;;;;4934442;29;20499;-77
2021/11/30 15:50:29;;;;;;;23.07;22.27;;;5.20;99.90;;;;;;4934064;29;20460;-77
2021/11/30 15:52:56;;;;;;;23.40;22.60;;;5.10;99.90;;;;;;4934169;29;20468;-78
2021/11/30 15:55:31;;;;;;;25.30;24.30;;;5.10;99.90;;;;;;4934034;29;20566;-78
2021/11/30 15:57:57;;;;;;;23.93;23.03;;;5.00;99.90;;;;;;4934118;29;20452;-77
2021/11/30 16:00:25;;;;;;;24.07;23.17;;;5.00;99.90;;;;;;4932664;29;20870;-77
2021/11/30 16:02:51;;;;;;;24.87;23.50;;;5.00;99.90;;;;;;4934311;29;20211;-76
2021/11/30 16:05:18;;;;;;;24.77;23.97;;;5.00;99.90;;;;;;4933836;29;20481;-76
2021/11/30 16:07:45;;;;;;;26.13;25.13;;;5.00;99.90;;;;;;4933906;29;20600;-79
2021/11/30 16:10:12;;;;;;;26.30;25.40;;;5.10;99.90;;;;;;4933862;29;20955;-78
2021/11/30 16:12:40;;;;;;;27.10;26.00;;;5.10;99.90;;;;;;4933800;29;20452;-78
2021/11/30 16:15:10;;;;;;;28.17;27.07;;;5.00;99.90;;;;;;4934050;29;20454;-79
2021/11/30 16:17:37;;;;;;;27.87;26.77;;;5.00;99.90;;;;;;4933815;29;20454;-80
2021/11/30 16:20:05;;;;;;;28.10;26.90;;;5.10;99.90;;;;;;4933848;29;20459;-83
2021/11/30 16:22:31;;;;;;;27.93;26.77;;;5.10;99.90;;;;;;4933950;29;20967;-81
2021/11/30 16:24:58;;;;;;;27.27;26.27;;;5.00;99.90;;;;;;4933648;29;20466;-81
2021/11/30 16:27:25;;;;;;;29.57;28.37;;;5.00;99.90;;;;;;4933612;29;20489;-81
2021/11/30 16:29:54;;;;;;;29.50;27.67;;;5.00;99.90;;;;;;4933830;29;20816;-82
2021/11/30 16:32:20;;;;;;;30.47;28.83;;;5.00;99.90;;;;;;4933785;29;20943;-82
2021/11/30 16:34:47;;;;;;;30.27;29.10;;;5.00;99.90;;;;;;4933791;29;20538;-83
2021/11/30 16:37:14;;;;;;;31.10;29.70;;;5.00;99.90;;;;;;4933862;29;20458;-81
2021/11/30 16:39:41;;;;;;;30.83;29.63;;;5.00;99.90;;;;;;4934136;29;20548;-83
2021/11/30 16:42:09;;;;;;;30.63;29.43;;;5.00;99.90;;;;;;4934453;29;20460;-83
2021/11/30 16:44:36;;;;;;;29.50;28.23;;;4.90;99.90;;;;;;4947079;29;20449;-83
2021/11/30 16:47:04;;;;;;;31.10;29.90;;;4.90;99.90;;;;;;4946421;29;21015;-82
2021/11/30 16:49:34;;;;;;;29.47;28.20;;;5.00;99.90;;;;;;4939790;29;20482;-84
2021/11/30 16:52:01;;;;;;;29.80;28.70;;;5.00;99.90;;;;;;4936320;29;20457;-82
2021/11/30 16:54:28;;;;;;;30.47;29.27;;;5.00;99.90;;;;;;4934787;29;20450;-85
2021/11/30 16:56:56;;;;;;;30.90;29.70;;;5.00;99.90;;;;;;4932674;29;20461;-83
2021/11/30 16:59:23;;;;;;;30.17;28.97;;;4.90;99.90;;;;;;4933439;29;20458;-84
2021/11/30 17:01:50;;;;;;;30.00;28.60;;;4.90;99.90;;;;;;4933581;29;20470;-83
2021/11/30 17:04:18;;;;;;;29.20;28.00;;;5.00;99.90;;;;;;4933344;29;20476;-83
2021/11/30 17:06:45;;;;;;;29.80;28.60;;;5.00;99.90;;;;;;4932972;29;20477;-82
2021/11/30 17:09:12;;;;;;;30.30;28.90;;;4.90;99.90;;;;;;4933237;29;20453;-79
2021/11/30 17:11:39;;;;;;;27.60;26.50;;;4.90;99.90;;;;;;4932987;29;20998;-78
2021/11/30 17:14:06;;;;;;;28.57;27.57;;;4.90;99.90;;;;;;4933229;29;20460;-79
2021/11/30 17:16:33;;;;;;;30.93;29.43;;;4.90;99.90;;;;;;4933461;29;20449;-80
2021/11/30 17:19:00;;;;;;;28.60;27.43;;;4.80;99.90;;;;;;4933184;29;20463;-80
2021/11/30 17:21:28;;;;;;;29.03;27.93;;;4.80;99.90;;;;;;4932890;29;21023;-80
2021/11/30 17:23:57;;;;;;;29.70;28.60;;;4.70;99.90;;;;;;4932868;29;21166;-80
2021/11/30 17:26:26;;;;;;;28.80;27.70;;;4.60;99.90;;;;;;4933036;29;20892;-81
2021/11/30 17:28:54;;;;;;;28.70;27.50;;;4.60;99.90;;;;;;4932901;29;20497;-80
2021/11/30 17:31:21;;;;;;;30.03;28.93;;;4.60;99.90;;;;;;4933019;29;20544;-81
2021/11/30 17:33:49;;;;;;;30.13;29.03;;;4.70;99.90;;;;;;4933153;29;20485;-81
2021/11/30 17:36:16;;;;;;;29.67;28.53;;;4.60;99.90;;;;;;4932889;29;20454;-79
2021/11/30 17:38:45;;;;;;;31.00;29.80;;;4.60;99.90;;;;;;4933052;29;20948;-80
2021/11/30 17:41:12;;;;;;;29.70;28.60;;;4.60;99.90;;;;;;4932819;29;20461;-81
2021/11/30 17:43:38;;;;;;;29.83;28.73;;;4.60;99.90;;;;;;4933484;29;20461;-82
2021/11/30 17:46:06;;;;;;;30.10;28.93;;;4.70;99.90;;;;;;4936470;29;20463;-81
2021/11/30 17:48:35;;;;;;;30.13;28.93;;;4.70;99.90;;;;;;4933327;29;20489;-81
2021/11/30 17:51:03;;;;;;;29.90;28.70;;;4.60;99.90;;;;;;4933059;29;20472;-80
2021/11/30 17:53:31;;;;;;;30.63;29.43;;;4.70;99.90;;;;;;4932844;29;20460;-81
2021/11/30 17:55:59;;;;;;;30.10;29.00;;;4.70;99.90;;;;;;4932864;29;20465;-82
2021/11/30 17:58:26;;;;;;;29.93;28.77;;;4.70;99.90;;;;;;4936200;29;20963;-79
2021/11/30 18:00:53;;;;;;;29.40;28.30;;;4.80;99.90;;;;;;4936062;29;20457;-80
2021/11/30 18:03:20;;;;;;;29.30;28.20;;;4.80;99.90;;;;;;4936393;29;20458;-80